sensor_id;sensor_type;location;lat;lon;timestamp;temperature;humidity
9399;DHT22;4739;49.334;8.792;2022-07-29T02:12:48;19.00;99.90
9399;DHT22;4739;49.334;8.792;2022-07-29T02:15:16;19.10;99.90
9399;DHT22;4739;49.334;8.792;2022-07-29T02:17:46;19.10;99.90
9399;DHT22;4739;49.334;8.792;2022-07-29T02:20:14;19.10;99.90
9399;DHT22;4739;49.334;8.792;2022-07-29T02:22:42;19.00;99.90
9399;DHT22;4739;49.334;8.792;2022-07-29T02:25:09;19.00;99.90
9399;DHT22;4739;49.334;8.792;2022-07-29T02:27:37;18.90;99.90
9399;DHT22;4739;49.334;8.792;2022-07-29T02:30:04;18.80;99.90
9399;DHT22;4739;49.334;8.792;2022-07-29T02:32:32;18.90;99.90
9399;DHT22;4739;49.334;8.792;2022-07-29T02:35:00;18.80;99.90
9399;DHT22;4739;49.334;8.792;2022-07-29T02:37:27;18.80;99.90
9399;DHT22;4739;49.334;8.792;2022-07-29T02:39:55;18.70;99.90
9399;DHT22;4739;49.334;8.792;2022-07-29T02:42:24;18.80;99.90
9399;DHT22;4739;49.334;8.792;2022-07-29T02:44:52;18.80;99.90
9399;DHT22;4739;49.334;8.792;2022-07-29T02:47:42;18.80;99.90
9399;DHT22;4739;49.334;8.792;2022-07-29T02:50:21;18.70;99.90
9399;DHT22;4739;49.334;8.792;2022-07-29T02:53:00;18.70;99.90
9399;DHT22;4739;49.334;8.792;2022-07-29T02:55:34;18.80;99.90
9399;DHT22;4739;49.334;8.792;2022-07-29T03:00:47;18.70;99.90
9399;DHT22;4739;49.334;8.792;2022-07-29T03:03:16;18.70;99.90
9399;DHT22;4739;49.334;8.792;2022-07-29T03:05:42;18.70;99.90
9399;DHT22;4739;49.334;8.792;2022-07-29T03:08:10;18.70;99.90
9399;DHT22;4739;49.334;8.792;2022-07-29T03:10:38;18.70;99.90
9399;DHT22;4739;49.334;8.792;2022-07-29T03:13:05;18.70;99.90
9399;DHT22;4739;49.334;8.792;2022-07-29T03:15:31;18.70;99.90
9399;DHT22;4739;49.334;8.792;2022-07-29T03:17:58;18.70;99.90
9399;DHT22;4739;49.334;8.792;2022-07-29T03:20:25;18.70;99.90
9399;DHT22;4739;49.334;8.792;2022-07-29T03:22:51;18.70;99.90
9399;DHT22;4739;49.334;8.792;2022-07-29T03:25:18;18.70;99.90
9399;DHT22;4739;49.334;8.792;2022-07-29T03:27:45;18.60;99.90
9399;DHT22;4739;49.334;8.792;2022-07-29T03:30:12;18.60;99.90
9399;DHT22;4739;49.334;8.792;2022-07-29T03:32:39;18.60;99.90
9399;DHT22;4739;49.334;8.792;2022-07-29T03:35:05;18.60;99.90
9399;DHT22;4739;49.334;8.792;2022-07-29T03:37:31;18.60;99.90
9399;DHT22;4739;49.334;8.792;2022-07-29T03:40:00;18.60;99.90
9399;DHT22;4739;49.334;8.792;2022-07-29T03:42:31;18.60;99.90
9399;DHT22;4739;49.334;8.792;2022-07-29T03:45:00;18.50;99.90
9399;DHT22;4739;49.334;8.792;2022-07-29T03:47:28;18.50;99.90
9399;DHT22;4739;49.334;8.792;2022-07-29T03:50:02;18.60;99.90
9399;DHT22;4739;49.334;8.792;2022-07-29T03:52:28;18.60;99.90
9399;DHT22;4739;49.334;8.792;2022-07-29T03:54:54;18.60;99.90
9399;DHT22;4739;49.334;8.792;2022-07-29T03:57:23;18.60;99.90
9399;DHT22;4739;49.334;8.792;2022-07-29T03:59:51;18.60;99.90
9399;DHT22;4739;49.334;8.792;2022-07-29T04:02:17;18.60;99.90
9399;DHT22;4739;49.334;8.792;2022-07-29T04:04:43;18.60;99.90
9399;DHT22;4739;49.334;8.792;2022-07-29T04:07:12;18.60;99.90
9399;DHT22;4739;49.334;8.792;2022-07-29T04:09:37;18.60;99.90
9399;DHT22;4739;49.334;8.792;2022-07-29T04:12:03;18.70;99.90
9399;DHT22;4739;49.334;8.792;2022-07-29T04:14:30;18.70;99.90
9399;DHT22;4739;49.334;8.792;2022-07-29T04:16:56;18.60;99.90
9399;DHT22;4739;49.334;8.792;2022-07-29T04:19:22;18.60;99.90
9399;DHT22;4739;49.334;8.792;2022-07-29T04:21:47;18.60;99.90
9399;DHT22;4739;49.334;8.792;2022-07-29T04:24:13;18.50;99.90
9399;DHT22;4739;49.334;8.792;2022-07-29T04:26:39;18.50;99.90
9399;DHT22;4739;49.334;8.792;2022-07-29T04:29:04;18.50;99.90
9399;DHT22;4739;49.334;8.792;2022-07-29T04:31:30;18.40;99.90
9399;DHT22;4739;49.334;8.792;2022-07-29T04:33:55;18.40;99.90
9399;DHT22;4739;49.334;8.792;2022-07-29T04:36:21;18.40;99.90
9399;DHT22;4739;49.334;8.792;2022-07-29T04:38:47;18.30;99.90
9399;DHT22;4739;49.334;8.792;2022-07-29T04:41:12;18.30;99.90
9399;DHT22;4739;49.334;8.792;2022-07-29T04:43:38;18.30;99.90
9399;DHT22;4739;49.334;8.792;2022-07-29T04:46:06;18.30;99.90
9399;DHT22;4739;49.334;8.792;2022-07-29T04:48:32;18.30;99.90
9399;DHT22;4739;49.334;8.792;2022-07-29T04:50:58;18.30;99.90
9399;DHT22;4739;49.334;8.792;2022-07-29T04:53:24;18.30;99.90
9399;DHT22;4739;49.334;8.792;2022-07-29T04:55:50;18.30;99.90
9399;DHT22;4739;49.334;8.792;2022-07-29T04:58:16;18.30;99.90
9399;DHT22;4739;49.334;8.792;2022-07-29T05:00:42;18.30;99.90
9399;DHT22;4739;49.334;8.792;2022-07-29T05:03:07;18.30;99.90
9399;DHT22;4739;49.334;8.792;2022-07-29T05:05:33;18.20;99.90
9399;DHT22;4739;49.334;8.792;2022-07-29T05:07:59;18.30;99.90
9399;DHT22;4739;49.334;8.792;2022-07-29T05:10:24;18.30;99.90
9399;DHT22;4739;49.334;8.792;2022-07-29T05:12:50;18.30;99.90
9399;DHT22;4739;49.334;8.792;2022-07-29T05:15:16;18.40;99.90
9399;DHT22;4739;49.334;8.792;2022-07-29T05:17:43;18.40;99.90
9399;DHT22;4739;49.334;8.792;2022-07-29T05:20:09;18.50;99.90
9399;DHT22;4739;49.334;8.792;2022-07-29T05:22:35;18.60;99.90
9399;DHT22;4739;49.334;8.792;2022-07-29T05:25:00;18.70;99.90
9399;DHT22;4739;49.334;8.792;2022-07-29T05:27:26;18.70;99.90
9399;DHT22;4739;49.334;8.792;2022-07-29T05:29:51;18.80;99.90
9399;DHT22;4739;49.334;8.792;2022-07-29T05:32:17;18.90;99.90
9399;DHT22;4739;49.334;8.792;2022-07-29T05:34:42;18.90;99.90
9399;DHT22;4739;49.334;8.792;2022-07-29T05:37:08;19.00;99.90
9399;DHT22;4739;49.334;8.792;2022-07-29T05:39:34;19.10;99.90
9399;DHT22;4739;49.334;8.792;2022-07-29T05:41:59;19.10;99.90
9399;DHT22;4739;49.334;8.792;2022-07-29T05:44:25;19.20;99.90
9399;DHT22;4739;49.334;8.792;2022-07-29T05:46:50;19.20;99.90
9399;DHT22;4739;49.334;8.792;2022-07-29T05:49:16;19.30;99.90
9399;DHT22;4739;49.334;8.792;2022-07-29T05:51:42;19.40;99.90
9399;DHT22;4739;49.334;8.792;2022-07-29T05:54:07;19.40;99.90
9399;DHT22;4739;49.334;8.792;2022-07-29T05:56:35;19.50;99.90
9399;DHT22;4739;49.334;8.792;2022-07-29T05:59:01;19.60;99.90
9399;DHT22;4739;49.334;8.792;2022-07-29T06:01:27;19.60;99.90
9399;DHT22;4739;49.334;8.792;2022-07-29T06:03:52;19.70;99.90
9399;DHT22;4739;49.334;8.792;2022-07-29T06:06:18;19.80;99.90
9399;DHT22;4739;49.334;8.792;2022-07-29T06:08:43;19.80;99.90
9399;DHT22;4739;49.334;8.792;2022-07-29T06:11:09;19.90;99.90
9399;DHT22;4739;49.334;8.792;2022-07-29T06:13:34;19.90;99.90
9399;DHT22;4739;49.334;8.792;2022-07-29T06:16:00;20.00;99.90
9399;DHT22;4739;49.334;8.792;2022-07-29T06:18:26;20.00;99.90
9399;DHT22;4739;49.334;8.792;2022-07-29T06:23:28;20.10;99.90
9399;DHT22;4739;49.334;8.792;2022-07-29T06:25:53;20.20;99.90
9399;DHT22;4739;49.334;8.792;2022-07-29T06:28:19;20.20;99.90
9399;DHT22;4739;49.334;8.792;2022-07-29T06:30:44;20.30;99.90
9399;DHT22;4739;49.334;8.792;2022-07-29T06:33:16;20.40;99.90
9399;DHT22;4739;49.334;8.792;2022-07-29T06:35:42;20.50;99.90
9399;DHT22;4739;49.334;8.792;2022-07-29T06:38:08;20.70;99.90
9399;DHT22;4739;49.334;8.792;2022-07-29T06:40:35;20.80;99.90
9399;DHT22;4739;49.334;8.792;2022-07-29T06:43:19;20.90;99.90
9399;DHT22;4739;49.334;8.792;2022-07-29T06:45:44;21.00;99.90
9399;DHT22;4739;49.334;8.792;2022-07-29T06:48:10;21.10;99.90
9399;DHT22;4739;49.334;8.792;2022-07-29T06:50:36;21.20;99.90
9399;DHT22;4739;49.334;8.792;2022-07-29T06:53:01;21.30;99.90
9399;DHT22;4739;49.334;8.792;2022-07-29T06:55:27;21.40;99.90
9399;DHT22;4739;49.334;8.792;2022-07-29T06:57:53;21.50;99.90
9399;DHT22;4739;49.334;8.792;2022-07-29T07:00:18;21.60;99.90
9399;DHT22;4739;49.334;8.792;2022-07-29T07:02:44;21.70;99.90
9399;DHT22;4739;49.334;8.792;2022-07-29T07:05:09;21.90;99.90
9399;DHT22;4739;49.334;8.792;2022-07-29T07:07:35;21.90;99.90
9399;DHT22;4739;49.334;8.792;2022-07-29T07:10:01;22.10;99.90
9399;DHT22;4739;49.334;8.792;2022-07-29T07:12:26;22.10;99.90
9399;DHT22;4739;49.334;8.792;2022-07-29T07:14:52;22.10;99.90
9399;DHT22;4739;49.334;8.792;2022-07-29T07:17:17;22.10;99.90
9399;DHT22;4739;49.334;8.792;2022-07-29T07:19:43;22.20;99.90
9399;DHT22;4739;49.334;8.792;2022-07-29T07:22:10;22.20;99.90
9399;DHT22;4739;49.334;8.792;2022-07-29T07:24:35;22.30;99.90
9399;DHT22;4739;49.334;8.792;2022-07-29T07:27:01;22.30;99.90
9399;DHT22;4739;49.334;8.792;2022-07-29T07:29:27;22.40;99.90
9399;DHT22;4739;49.334;8.792;2022-07-29T07:31:52;22.40;99.90
9399;DHT22;4739;49.334;8.792;2022-07-29T07:34:18;22.50;99.90
9399;DHT22;4739;49.334;8.792;2022-07-29T07:36:44;22.50;99.90
9399;DHT22;4739;49.334;8.792;2022-07-29T07:39:09;22.60;99.90
9399;DHT22;4739;49.334;8.792;2022-07-29T07:41:35;22.70;99.90
9399;DHT22;4739;49.334;8.792;2022-07-29T07:44:00;22.70;99.90
9399;DHT22;4739;49.334;8.792;2022-07-29T07:46:26;22.80;99.90
9399;DHT22;4739;49.334;8.792;2022-07-29T07:48:51;22.90;99.90
9399;DHT22;4739;49.334;8.792;2022-07-29T07:51:17;23.10;99.90
9399;DHT22;4739;49.334;8.792;2022-07-29T07:53:43;23.30;99.90
9399;DHT22;4739;49.334;8.792;2022-07-29T07:56:10;23.50;99.90
9399;DHT22;4739;49.334;8.792;2022-07-29T07:58:36;23.60;99.90
9399;DHT22;4739;49.334;8.792;2022-07-29T08:01:02;23.50;99.90
9399;DHT22;4739;49.334;8.792;2022-07-29T08:03:28;23.60;99.90
9399;DHT22;4739;49.334;8.792;2022-07-29T08:05:53;23.50;99.90
9399;DHT22;4739;49.334;8.792;2022-07-29T08:08:20;23.50;99.90
9399;DHT22;4739;49.334;8.792;2022-07-29T08:10:46;23.50;99.90
9399;DHT22;4739;49.334;8.792;2022-07-29T08:13:18;23.40;99.90
9399;DHT22;4739;49.334;8.792;2022-07-29T08:15:44;23.50;99.90
9399;DHT22;4739;49.334;8.792;2022-07-29T08:18:11;23.60;99.90
9399;DHT22;4739;49.334;8.792;2022-07-29T08:20:37;23.70;99.90
9399;DHT22;4739;49.334;8.792;2022-07-29T08:23:05;23.90;99.90
9399;DHT22;4739;49.334;8.792;2022-07-29T08:25:32;24.10;99.90
9399;DHT22;4739;49.334;8.792;2022-07-29T08:27:58;24.20;99.90
9399;DHT22;4739;49.334;8.792;2022-07-29T08:30:24;24.30;99.90
9399;DHT22;4739;49.334;8.792;2022-07-29T08:32:50;24.40;99.90
9399;DHT22;4739;49.334;8.792;2022-07-29T08:35:18;24.50;99.90
9399;DHT22;4739;49.334;8.792;2022-07-29T08:37:45;24.70;99.90
9399;DHT22;4739;49.334;8.792;2022-07-29T08:40:11;24.80;99.90
9399;DHT22;4739;49.334;8.792;2022-07-29T08:42:37;25.00;99.90
9399;DHT22;4739;49.334;8.792;2022-07-29T08:45:04;24.90;99.90
9399;DHT22;4739;49.334;8.792;2022-07-29T08:47:30;24.80;99.90
9399;DHT22;4739;49.334;8.792;2022-07-29T08:49:55;24.60;99.90
9399;DHT22;4739;49.334;8.792;2022-07-29T08:52:22;24.50;99.90
9399;DHT22;4739;49.334;8.792;2022-07-29T08:54:51;24.60;99.90
9399;DHT22;4739;49.334;8.792;2022-07-29T08:57:18;24.70;99.90
9399;DHT22;4739;49.334;8.792;2022-07-29T08:59:46;25.00;99.90
9399;DHT22;4739;49.334;8.792;2022-07-29T09:02:21;25.10;99.90
9399;DHT22;4739;49.334;8.792;2022-07-29T09:04:48;25.00;99.90
9399;DHT22;4739;49.334;8.792;2022-07-29T09:07:15;25.10;99.90
9399;DHT22;4739;49.334;8.792;2022-07-29T09:09:42;25.10;99.90
9399;DHT22;4739;49.334;8.792;2022-07-29T09:12:09;25.20;99.90
9399;DHT22;4739;49.334;8.792;2022-07-29T09:14:37;25.50;99.90
9399;DHT22;4739;49.334;8.792;2022-07-29T09:17:02;25.40;99.90
9399;DHT22;4739;49.334;8.792;2022-07-29T09:19:30;25.30;99.90
9399;DHT22;4739;49.334;8.792;2022-07-29T09:21:58;25.30;99.90
9399;DHT22;4739;49.334;8.792;2022-07-29T09:24:27;25.50;99.90
9399;DHT22;4739;49.334;8.792;2022-07-29T09:26:53;25.60;99.90
9399;DHT22;4739;49.334;8.792;2022-07-29T09:29:21;25.90;99.90
9399;DHT22;4739;49.334;8.792;2022-07-29T09:31:49;26.00;99.90
9399;DHT22;4739;49.334;8.792;2022-07-29T09:34:28;25.80;99.90
9399;DHT22;4739;49.334;8.792;2022-07-29T09:36:55;25.70;99.90
9399;DHT22;4739;49.334;8.792;2022-07-29T09:39:33;25.70;99.90
9399;DHT22;4739;49.334;8.792;2022-07-29T09:42:01;25.60;99.90
9399;DHT22;4739;49.334;8.792;2022-07-29T09:44:47;25.70;99.90
9399;DHT22;4739;49.334;8.792;2022-07-29T09:47:14;25.70;99.90
9399;DHT22;4739;49.334;8.792;2022-07-29T09:50:12;25.90;99.90
9399;DHT22;4739;49.334;8.792;2022-07-29T09:52:54;26.20;99.90
9399;DHT22;4739;49.334;8.792;2022-07-29T09:55:20;26.20;99.90
9399;DHT22;4739;49.334;8.792;2022-07-29T09:57:46;26.30;99.90
9399;DHT22;4739;49.334;8.792;2022-07-29T10:00:13;26.40;99.90
9399;DHT22;4739;49.334;8.792;2022-07-29T10:02:41;26.50;99.90
9399;DHT22;4739;49.334;8.792;2022-07-29T10:05:23;26.50;99.90
9399;DHT22;4739;49.334;8.792;2022-07-29T10:07:53;26.70;99.90
9399;DHT22;4739;49.334;8.792;2022-07-29T10:12:50;26.90;99.90
9399;DHT22;4739;49.334;8.792;2022-07-29T10:15:16;26.80;99.90
9399;DHT22;4739;49.334;8.792;2022-07-29T10:17:43;27.00;99.90
9399;DHT22;4739;49.334;8.792;2022-07-29T10:20:09;27.10;99.90
9399;DHT22;4739;49.334;8.792;2022-07-29T10:22:35;27.10;99.90
9399;DHT22;4739;49.334;8.792;2022-07-29T10:25:02;26.90;99.90
9399;DHT22;4739;49.334;8.792;2022-07-29T10:27:29;26.90;99.90
9399;DHT22;4739;49.334;8.792;2022-07-29T10:29:54;26.70;99.90
9399;DHT22;4739;49.334;8.792;2022-07-29T10:38:02;27.20;99.90
9399;DHT22;4739;49.334;8.792;2022-07-29T10:43:37;27.60;99.90
9399;DHT22;4739;49.334;8.792;2022-07-29T10:46:05;27.70;99.90
9399;DHT22;4739;49.334;8.792;2022-07-29T10:48:31;27.70;99.90
9399;DHT22;4739;49.334;8.792;2022-07-29T10:51:04;27.80;99.90
9399;DHT22;4739;49.334;8.792;2022-07-29T10:53:48;27.80;99.90
9399;DHT22;4739;49.334;8.792;2022-07-29T11:01:52;27.70;99.90
9399;DHT22;4739;49.334;8.792;2022-07-29T11:05:19;27.90;99.90
9399;DHT22;4739;49.334;8.792;2022-07-29T11:07:26;28.00;99.90
9399;DHT22;4739;49.334;8.792;2022-07-29T11:15:12;28.20;99.90
9399;DHT22;4739;49.334;8.792;2022-07-29T11:23:36;28.70;99.90
9399;DHT22;4739;49.334;8.792;2022-07-29T11:31:07;29.00;99.90
9399;DHT22;4739;49.334;8.792;2022-07-29T11:33:34;29.00;99.90
9399;DHT22;4739;49.334;8.792;2022-07-29T11:36:11;29.20;99.90
9399;DHT22;4739;49.334;8.792;2022-07-29T11:38:37;29.50;99.90
9399;DHT22;4739;49.334;8.792;2022-07-29T11:41:24;29.70;99.90
9399;DHT22;4739;49.334;8.792;2022-07-29T11:49:04;29.40;99.90
9399;DHT22;4739;49.334;8.792;2022-07-29T11:51:30;29.40;99.90
9399;DHT22;4739;49.334;8.792;2022-07-29T11:53:57;29.70;99.90
9399;DHT22;4739;49.334;8.792;2022-07-29T11:56:23;29.90;99.90
9399;DHT22;4739;49.334;8.792;2022-07-29T11:58:59;29.90;99.90
9399;DHT22;4739;49.334;8.792;2022-07-29T12:01:26;29.90;99.90
9399;DHT22;4739;49.334;8.792;2022-07-29T12:04:03;30.20;99.90
9399;DHT22;4739;49.334;8.792;2022-07-29T12:06:29;30.00;99.90
9399;DHT22;4739;49.334;8.792;2022-07-29T12:08:55;30.10;99.90
9399;DHT22;4739;49.334;8.792;2022-07-29T12:11:20;30.10;99.90
9399;DHT22;4739;49.334;8.792;2022-07-29T12:13:46;29.90;99.90
9399;DHT22;4739;49.334;8.792;2022-07-29T12:16:12;30.20;99.90
9399;DHT22;4739;49.334;8.792;2022-07-29T12:18:37;30.20;99.90
9399;DHT22;4739;49.334;8.792;2022-07-29T12:21:03;30.50;99.90
9399;DHT22;4739;49.334;8.792;2022-07-29T12:23:29;30.70;99.90
9399;DHT22;4739;49.334;8.792;2022-07-29T12:28:21;30.50;98.70
9399;DHT22;4739;49.334;8.792;2022-07-29T12:30:49;30.80;99.60
9399;DHT22;4739;49.334;8.792;2022-07-29T12:35:42;31.10;95.40
9399;DHT22;4739;49.334;8.792;2022-07-29T12:38:10;31.30;95.50
9399;DHT22;4739;49.334;8.792;2022-07-29T12:40:36;31.50;96.30
9399;DHT22;4739;49.334;8.792;2022-07-29T12:43:21;31.40;97.80
9399;DHT22;4739;49.334;8.792;2022-07-29T12:45:50;31.10;97.40
9399;DHT22;4739;49.334;8.792;2022-07-29T12:48:17;30.60;95.40
9399;DHT22;4739;49.334;8.792;2022-07-29T12:50:54;30.40;95.90
9399;DHT22;4739;49.334;8.792;2022-07-29T12:53:20;30.30;95.60
9399;DHT22;4739;49.334;8.792;2022-07-29T12:58:45;30.20;95.20
9399;DHT22;4739;49.334;8.792;2022-07-29T13:01:14;30.00;95.30
9399;DHT22;4739;49.334;8.792;2022-07-29T13:03:51;29.80;95.60
9399;DHT22;4739;49.334;8.792;2022-07-29T13:06:42;29.80;95.60
9399;DHT22;4739;49.334;8.792;2022-07-29T13:11:42;29.30;94.90
9399;DHT22;4739;49.334;8.792;2022-07-29T13:14:11;29.20;95.60
9399;DHT22;4739;49.334;8.792;2022-07-29T13:19:39;29.10;95.10
9399;DHT22;4739;49.334;8.792;2022-07-29T13:22:13;29.20;95.50
9399;DHT22;4739;49.334;8.792;2022-07-29T13:24:59;29.10;94.70
9399;DHT22;4739;49.334;8.792;2022-07-29T13:27:30;29.10;95.50
9399;DHT22;4739;49.334;8.792;2022-07-29T13:29:58;29.10;95.40
9399;DHT22;4739;49.334;8.792;2022-07-29T13:32:26;29.00;96.80
9399;DHT22;4739;49.334;8.792;2022-07-29T13:34:52;28.80;96.60
9399;DHT22;4739;49.334;8.792;2022-07-29T13:37:19;28.60;96.80
9399;DHT22;4739;49.334;8.792;2022-07-29T13:39:44;28.40;97.20
9399;DHT22;4739;49.334;8.792;2022-07-29T13:42:10;28.50;97.10
9399;DHT22;4739;49.334;8.792;2022-07-29T13:44:39;28.50;97.30
9399;DHT22;4739;49.334;8.792;2022-07-29T13:47:05;28.50;97.00
9399;DHT22;4739;49.334;8.792;2022-07-29T13:49:31;28.60;97.10
9399;DHT22;4739;49.334;8.792;2022-07-29T13:51:57;28.60;97.30
9399;DHT22;4739;49.334;8.792;2022-07-29T13:54:22;28.60;96.90
9399;DHT22;4739;49.334;8.792;2022-07-29T13:56:50;28.50;97.10
9399;DHT22;4739;49.334;8.792;2022-07-29T13:59:15;28.50;96.70
9399;DHT22;4739;49.334;8.792;2022-07-29T14:01:41;28.50;97.60
9399;DHT22;4739;49.334;8.792;2022-07-29T14:04:08;28.70;97.50
9399;DHT22;4739;49.334;8.792;2022-07-29T14:06:33;28.80;97.70
9399;DHT22;4739;49.334;8.792;2022-07-29T14:08:59;28.90;96.90
9399;DHT22;4739;49.334;8.792;2022-07-29T14:11:25;28.80;95.80
9399;DHT22;4739;49.334;8.792;2022-07-29T14:13:50;28.80;95.30
9399;DHT22;4739;49.334;8.792;2022-07-29T14:16:16;28.70;95.10
9399;DHT22;4739;49.334;8.792;2022-07-29T14:18:42;28.60;95.20
9399;DHT22;4739;49.334;8.792;2022-07-29T14:21:08;28.80;95.20
9399;DHT22;4739;49.334;8.792;2022-07-29T14:23:34;28.90;95.40
9399;DHT22;4739;49.334;8.792;2022-07-29T14:26:00;28.90;95.80
9399;DHT22;4739;49.334;8.792;2022-07-29T14:28:26;28.90;93.90
9399;DHT22;4739;49.334;8.792;2022-07-29T14:30:51;28.90;94.20
9399;DHT22;4739;49.334;8.792;2022-07-29T14:33:17;28.90;93.70
9399;DHT22;4739;49.334;8.792;2022-07-29T14:35:43;28.90;93.70
9399;DHT22;4739;49.334;8.792;2022-07-29T14:55:13;30.20;91.20
9399;DHT22;4739;49.334;8.792;2022-07-29T14:57:38;30.20;90.80
9399;DHT22;4739;49.334;8.792;2022-07-29T15:00:05;30.10;91.40
9399;DHT22;4739;49.334;8.792;2022-07-29T15:02:34;30.20;91.20
9399;DHT22;4739;49.334;8.792;2022-07-29T15:05:00;30.00;90.90
9399;DHT22;4739;49.334;8.792;2022-07-29T15:07:26;29.70;91.30
9399;DHT22;4739;49.334;8.792;2022-07-29T15:09:52;29.40;91.60
9399;DHT22;4739;49.334;8.792;2022-07-29T15:12:17;29.20;91.70
9399;DHT22;4739;49.334;8.792;2022-07-29T15:14:43;29.10;91.90
9399;DHT22;4739;49.334;8.792;2022-07-29T15:17:08;29.10;91.80
9399;DHT22;4739;49.334;8.792;2022-07-29T15:19:34;29.20;92.10
9399;DHT22;4739;49.334;8.792;2022-07-29T15:22:00;29.20;91.70
9399;DHT22;4739;49.334;8.792;2022-07-29T15:24:25;29.40;91.80
9399;DHT22;4739;49.334;8.792;2022-07-29T15:26:51;29.80;91.50
9399;DHT22;4739;49.334;8.792;2022-07-29T15:29:17;29.60;91.20
9399;DHT22;4739;49.334;8.792;2022-07-29T15:31:42;29.50;91.80
9399;DHT22;4739;49.334;8.792;2022-07-29T15:34:08;29.60;91.20
9399;DHT22;4739;49.334;8.792;2022-07-29T15:36:34;29.70;90.70
9399;DHT22;4739;49.334;8.792;2022-07-29T15:38:59;29.70;90.80
9399;DHT22;4739;49.334;8.792;2022-07-29T15:41:25;29.70;89.10
9399;DHT22;4739;49.334;8.792;2022-07-29T15:43:51;29.40;90.40
9399;DHT22;4739;49.334;8.792;2022-07-29T16:37:06;28.50;94.70
9399;DHT22;4739;49.334;8.792;2022-07-29T16:39:32;28.40;91.90
9399;DHT22;4739;49.334;8.792;2022-07-29T16:41:57;28.30;92.30
9399;DHT22;4739;49.334;8.792;2022-07-29T16:44:23;28.20;91.50
9399;DHT22;4739;49.334;8.792;2022-07-29T16:46:49;28.20;92.10
9399;DHT22;4739;49.334;8.792;2022-07-29T16:49:14;28.20;92.20
9399;DHT22;4739;49.334;8.792;2022-07-29T16:51:40;28.10;92.50
9399;DHT22;4739;49.334;8.792;2022-07-29T16:54:05;28.20;93.30
9399;DHT22;4739;49.334;8.792;2022-07-29T16:56:33;28.30;93.70
9399;DHT22;4739;49.334;8.792;2022-07-29T16:58:58;28.40;92.60
9399;DHT22;4739;49.334;8.792;2022-07-29T17:01:24;28.50;92.10
9399;DHT22;4739;49.334;8.792;2022-07-29T17:03:49;28.50;92.40
9399;DHT22;4739;49.334;8.792;2022-07-29T17:06:31;28.50;93.00
9399;DHT22;4739;49.334;8.792;2022-07-29T17:09:02;28.50;94.00
9399;DHT22;4739;49.334;8.792;2022-07-29T17:11:28;28.40;92.20
9399;DHT22;4739;49.334;8.792;2022-07-29T17:13:55;28.40;93.40
9399;DHT22;4739;49.334;8.792;2022-07-29T17:16:25;28.40;92.20
9399;DHT22;4739;49.334;8.792;2022-07-29T17:18:55;28.60;92.30
9399;DHT22;4739;49.334;8.792;2022-07-29T17:21:22;28.60;92.30
9399;DHT22;4739;49.334;8.792;2022-07-29T17:23:50;28.40;93.40
9399;DHT22;4739;49.334;8.792;2022-07-29T17:26:16;28.30;95.50
9399;DHT22;4739;49.334;8.792;2022-07-29T17:28:42;28.20;95.70
9399;DHT22;4739;49.334;8.792;2022-07-29T17:31:07;28.00;96.00
9399;DHT22;4739;49.334;8.792;2022-07-29T17:33:33;27.90;95.30
9399;DHT22;4739;49.334;8.792;2022-07-29T17:35:59;27.80;95.40
9399;DHT22;4739;49.334;8.792;2022-07-29T17:38:44;27.70;96.70
9399;DHT22;4739;49.334;8.792;2022-07-29T17:41:10;27.70;96.20
9399;DHT22;4739;49.334;8.792;2022-07-29T17:43:37;27.70;96.70
9399;DHT22;4739;49.334;8.792;2022-07-29T17:46:02;27.50;97.10
9399;DHT22;4739;49.334;8.792;2022-07-29T17:48:28;27.50;98.50
9399;DHT22;4739;49.334;8.792;2022-07-29T17:50:55;27.60;98.90
9399;DHT22;4739;49.334;8.792;2022-07-29T17:53:21;27.50;99.60
9399;DHT22;4739;49.334;8.792;2022-07-29T17:55:47;27.60;99.80
9399;DHT22;4739;49.334;8.792;2022-07-29T17:58:13;27.40;99.90
9399;DHT22;4739;49.334;8.792;2022-07-29T18:00:39;27.10;99.90
9399;DHT22;4739;49.334;8.792;2022-07-29T18:03:05;27.00;99.90
9399;DHT22;4739;49.334;8.792;2022-07-29T18:05:31;26.80;99.90
9399;DHT22;4739;49.334;8.792;2022-07-29T18:07:57;26.50;99.90
9399;DHT22;4739;49.334;8.792;2022-07-29T18:10:23;26.40;99.90
9399;DHT22;4739;49.334;8.792;2022-07-29T18:12:49;26.20;99.90
9399;DHT22;4739;49.334;8.792;2022-07-29T18:15:14;26.10;99.90
9399;DHT22;4739;49.334;8.792;2022-07-29T18:17:40;26.00;99.10
9399;DHT22;4739;49.334;8.792;2022-07-29T18:20:06;26.00;99.90
9399;DHT22;4739;49.334;8.792;2022-07-29T18:22:32;25.90;99.90
9399;DHT22;4739;49.334;8.792;2022-07-29T18:24:58;25.90;99.90
9399;DHT22;4739;49.334;8.792;2022-07-29T18:27:24;25.90;99.90
9399;DHT22;4739;49.334;8.792;2022-07-29T18:29:51;25.80;99.90
9399;DHT22;4739;49.334;8.792;2022-07-29T18:32:18;25.60;99.90
9399;DHT22;4739;49.334;8.792;2022-07-29T18:34:43;25.60;99.90
9399;DHT22;4739;49.334;8.792;2022-07-29T18:37:09;24.70;99.90
9399;DHT22;4739;49.334;8.792;2022-07-29T18:39:35;25.50;99.90
9399;DHT22;4739;49.334;8.792;2022-07-29T18:42:00;25.30;99.90
9399;DHT22;4739;49.334;8.792;2022-07-29T18:44:26;25.40;99.90
9399;DHT22;4739;49.334;8.792;2022-07-29T18:46:51;25.30;99.90
9399;DHT22;4739;49.334;8.792;2022-07-29T18:49:17;25.10;99.90
9399;DHT22;4739;49.334;8.792;2022-07-29T18:51:43;25.10;99.90
9399;DHT22;4739;49.334;8.792;2022-07-29T18:54:08;25.10;99.90
9399;DHT22;4739;49.334;8.792;2022-07-29T18:56:35;25.00;99.90
9399;DHT22;4739;49.334;8.792;2022-07-29T18:59:01;25.00;99.90
9399;DHT22;4739;49.334;8.792;2022-07-29T19:01:27;24.90;99.90
9399;DHT22;4739;49.334;8.792;2022-07-29T19:03:53;24.80;99.90
9399;DHT22;4739;49.334;8.792;2022-07-29T19:06:19;24.80;99.90
9399;DHT22;4739;49.334;8.792;2022-07-29T19:08:44;24.70;99.90
9399;DHT22;4739;49.334;8.792;2022-07-29T19:11:10;24.70;99.90
9399;DHT22;4739;49.334;8.792;2022-07-29T19:13:37;24.70;99.90
9399;DHT22;4739;49.334;8.792;2022-07-29T19:16:04;24.70;99.90
9399;DHT22;4739;49.334;8.792;2022-07-29T19:18:30;24.60;99.90
9399;DHT22;4739;49.334;8.792;2022-07-29T19:23:21;24.50;99.90
9399;DHT22;4739;49.334;8.792;2022-07-29T19:25:46;24.30;99.90
9399;DHT22;4739;49.334;8.792;2022-07-29T19:28:12;24.30;99.90
9399;DHT22;4739;49.334;8.792;2022-07-29T19:30:38;24.30;99.90
9399;DHT22;4739;49.334;8.792;2022-07-29T19:33:04;24.20;99.90
9399;DHT22;4739;49.334;8.792;2022-07-29T19:35:30;24.10;99.90
9399;DHT22;4739;49.334;8.792;2022-07-29T19:37:58;24.10;99.90
9399;DHT22;4739;49.334;8.792;2022-07-29T19:40:24;24.10;99.90
9399;DHT22;4739;49.334;8.792;2022-07-29T19:42:51;24.10;99.90
9399;DHT22;4739;49.334;8.792;2022-07-29T19:45:18;24.00;99.90
9399;DHT22;4739;49.334;8.792;2022-07-29T19:47:44;23.90;99.90
9399;DHT22;4739;49.334;8.792;2022-07-29T19:50:10;23.90;99.90
9399;DHT22;4739;49.334;8.792;2022-07-29T19:52:36;23.80;99.90
9399;DHT22;4739;49.334;8.792;2022-07-29T19:55:02;23.80;99.90
9399;DHT22;4739;49.334;8.792;2022-07-29T19:57:28;23.70;99.90
9399;DHT22;4739;49.334;8.792;2022-07-29T19:59:54;23.60;99.90
9399;DHT22;4739;49.334;8.792;2022-07-29T20:02:20;23.40;99.90
9399;DHT22;4739;49.334;8.792;2022-07-29T20:04:46;23.40;99.90
9399;DHT22;4739;49.334;8.792;2022-07-29T20:07:11;23.30;99.90
9399;DHT22;4739;49.334;8.792;2022-07-29T20:09:38;23.30;99.90
9399;DHT22;4739;49.334;8.792;2022-07-29T20:12:07;23.30;99.90
9399;DHT22;4739;49.334;8.792;2022-07-29T20:14:33;23.20;99.90
9399;DHT22;4739;49.334;8.792;2022-07-29T20:16:59;23.20;99.90
9399;DHT22;4739;49.334;8.792;2022-07-29T20:19:24;23.10;99.90
9399;DHT22;4739;49.334;8.792;2022-07-29T20:21:51;23.10;99.90